Ringling, Oklahoma
Current Conditions -  °F | °C
As of 11:55 PM on Saturday 22 Nov 2014 (Local Time) from K1F0 Reporting Station
Overcast Overcast  
Wind Chill: 57°   Ceiling: 400
Heat Index: 57°   Visibility: 7mi
Dew Point: 55°   Wind: 6mph
Humidity: 94%   Direction: 180°S
Pressure: 29.69"   Gusts: NA
Location:  34.18°N, 97.59°W
Report Text: K1F0 230555Z AUTO 18005KT 7SM BKN004 OVC008 14/13 A2969 RMK AO2
Loading
Personal Weather Stations






























Interactive Weather Map New forecast layout! Learn more

10-Day Weather Forecast

Advertisements
Track Severe Weather on mobile